Time;durP1;ratioP1;P1;durP2;ratioP2;P2;SDS_P1;SDS_P2;PMS_P1;PMS_P2;Temp;Humidity;BMP_temperature;BMP_pressure;BME280_temperature;BME280_humidity;BME280_pressure;Samples;Min_cycle;Max_cycle;Signal;HPM_P1;HPM_P2
2023/01/08 00:01:10;;;;;;;53.50;27.63;;;;;;;;;;5056600;28;20208;-43
2023/01/08 00:03:47;;;;;;;43.27;21.13;;;;;;;;;;5056602;28;20207;-45
2023/01/08 00:06:17;;;;;;;42.77;19.77;;;;;;;;;;5056695;28;20219;-47
2023/01/08 00:08:44;;;;;;;52.57;23.03;;;;;;;;;;5056687;28;20595;-45
2023/01/08 00:11:12;;;;;;;49.57;21.57;;;;;;;;;;5056702;28;20261;-45
2023/01/08 00:13:39;;;;;;;50.93;22.90;;;;;;;;;;5056470;28;20278;-42
2023/01/08 00:16:10;;;;;;;55.37;23.50;;;;;;;;;;5055289;28;20278;-46
2023/01/08 00:18:37;;;;;;;77.10;32.07;;;;;;;;;;5056425;28;20523;-45
2023/01/08 00:21:05;;;;;;;39.00;18.73;;;;;;;;;;5056260;28;20265;-46
2023/01/08 00:23:32;;;;;;;46.13;22.37;;;;;;;;;;5056221;28;20266;-48
2023/01/08 00:26:01;;;;;;;48.47;25.03;;;;;;;;;;5056307;28;20200;-44
2023/01/08 00:28:28;;;;;;;55.43;29.20;;;;;;;;;;5056141;28;20258;-41
2023/01/08 00:30:56;;;;;;;42.80;20.93;;;;;;;;;;5052863;28;20332;-46
2023/01/08 00:33:23;;;;;;;37.93;20.10;;;;;;;;;;5016360;28;20718;-41
2023/01/08 00:35:50;;;;;;;41.67;20.77;;;;;;;;;;5016569;28;20201;-46
2023/01/08 00:38:17;;;;;;;58.77;24.57;;;;;;;;;;5016577;28;20213;-43
2023/01/08 00:40:47;;;;;;;62.03;24.47;;;;;;;;;;5016217;28;20208;-44
2023/01/08 00:43:13;;;;;;;52.07;22.63;;;;;;;;;;5016035;28;20232;-46
2023/01/08 00:45:41;;;;;;;63.50;24.27;;;;;;;;;;5016060;28;20209;-44
2023/01/08 00:48:09;;;;;;;44.60;24.50;;;;;;;;;;5015999;28;20205;-45
2023/01/08 00:50:36;;;;;;;39.63;19.07;;;;;;;;;;5016155;28;20210;-46
2023/01/08 00:53:03;;;;;;;36.03;16.50;;;;;;;;;;5016186;28;20206;-41
2023/01/08 00:55:31;;;;;;;38.13;18.77;;;;;;;;;;5016105;28;20205;-47
2023/01/08 00:57:58;;;;;;;43.17;22.83;;;;;;;;;;5016170;28;20213;-43
2023/01/08 01:00:25;;;;;;;40.50;22.90;;;;;;;;;;5015795;28;20646;-46
2023/01/08 01:02:52;;;;;;;45.20;22.63;;;;;;;;;;5015840;28;20219;-44
2023/01/08 01:05:19;;;;;;;37.13;17.77;;;;;;;;;;5015929;28;20211;-44
2023/01/08 01:07:46;;;;;;;46.27;20.80;;;;;;;;;;5015739;28;20215;-43
2023/01/08 01:10:15;;;;;;;65.87;24.53;;;;;;;;;;5015569;28;20209;-46
2023/01/08 01:12:42;;;;;;;63.03;25.00;;;;;;;;;;5015570;28;20233;-41
2023/01/08 01:15:11;;;;;;;60.50;23.80;;;;;;;;;;5015519;28;20205;-46
2023/01/08 01:17:40;;;;;;;50.07;22.30;;;;;;;;;;5015521;28;20216;-43
2023/01/08 01:20:09;;;;;;;70.00;34.93;;;;;;;;;;5015519;28;20276;-44
2023/01/08 01:22:37;;;;;;;47.30;25.17;;;;;;;;;;5015671;28;20581;-46
2023/01/08 01:25:04;;;;;;;39.67;22.97;;;;;;;;;;5015534;28;20230;-49
2023/01/08 01:27:31;;;;;;;44.97;25.40;;;;;;;;;;5015319;28;20201;-45
2023/01/08 01:29:59;;;;;;;42.83;22.23;;;;;;;;;;5015595;28;20272;-44
2023/01/08 01:32:26;;;;;;;33.67;17.93;;;;;;;;;;5015535;28;20212;-47
2023/01/08 01:34:53;;;;;;;35.73;18.47;;;;;;;;;;5015236;28;20216;-45
2023/01/08 01:37:20;;;;;;;37.07;17.97;;;;;;;;;;5015018;28;20273;-47
2023/01/08 01:39:48;;;;;;;51.13;21.57;;;;;;;;;;5027963;28;20201;-44
2023/01/08 01:45:17;;;;;;;65.93;26.30;;;;;;;;;;5035035;28;20555;-43
2023/01/08 01:47:53;;;;;;;43.53;22.70;;;;;;;;;;5034695;28;20205;-46
2023/01/08 01:50:34;;;;;;;31.63;18.47;;;;;;;;;;5034023;28;20208;-46
2023/01/08 01:53:26;;;;;;;30.03;15.90;;;;;;;;;;5034595;28;20707;-44
2023/01/08 01:55:54;;;;;;;39.43;20.87;;;;;;;;;;5032200;28;20522;-44
2023/01/08 01:58:29;;;;;;;39.17;21.80;;;;;;;;;;5033890;28;20683;-45
2023/01/08 02:01:00;;;;;;;39.30;20.93;;;;;;;;;;5034763;28;20199;-44
2023/01/08 02:03:35;;;;;;;27.10;14.87;;;;;;;;;;5017563;28;20275;-44
2023/01/08 02:06:18;;;;;;;36.83;17.87;;;;;;;;;;5034398;28;20215;-44
2023/01/08 02:09:08;;;;;;;37.07;18.07;;;;;;;;;;5033878;28;20227;-46
2023/01/08 02:12:15;;;;;;;44.30;21.53;;;;;;;;;;5033634;28;20219;-46
2023/01/08 02:14:51;;;;;;;41.03;18.43;;;;;;;;;;5033453;28;20203;-45
2023/01/08 02:17:45;;;;;;;61.77;34.93;;;;;;;;;;5034591;28;20181;-41
2023/01/08 02:20:35;;;;;;;29.77;17.37;;;;;;;;;;5030239;28;20201;-49
2023/01/08 02:23:21;;;;;;;30.23;15.27;;;;;;;;;;5034034;28;20232;-45
2023/01/08 02:25:54;;;;;;;39.13;19.50;;;;;;;;;;5034390;28;20209;-43
2023/01/08 02:28:23;;;;;;;63.67;23.60;;;;;;;;;;5034265;28;20510;-42
2023/01/08 02:30:49;;;;;;;61.70;25.03;;;;;;;;;;5034168;28;20224;-47
2023/01/08 02:33:17;;;;;;;81.93;25.70;;;;;;;;;;5034080;28;20298;-43
2023/01/08 02:35:51;;;;;;;61.97;22.57;;;;;;;;;;5034193;28;20216;-46
2023/01/08 02:38:18;;;;;;;35.57;21.70;;;;;;;;;;5034177;28;20208;-45
2023/01/08 02:41:04;;;;;;;49.63;26.97;;;;;;;;;;5033247;28;20637;-47
2023/01/08 02:43:52;;;;;;;35.70;19.50;;;;;;;;;;5033024;28;20241;-45
2023/01/08 02:46:25;;;;;;;31.33;17.57;;;;;;;;;;5034070;28;20262;-41
2023/01/08 02:48:57;;;;;;;36.80;16.33;;;;;;;;;;5033157;28;20200;-45
2023/01/08 02:51:35;;;;;;;54.53;22.83;;;;;;;;;;5033140;28;20200;-45
2023/01/08 02:54:05;;;;;;;52.73;21.70;;;;;;;;;;5033009;28;20211;-45
2023/01/08 02:56:36;;;;;;;52.50;21.47;;;;;;;;;;5016747;28;20295;-44
2023/01/08 02:59:04;;;;;;;48.77;20.20;;;;;;;;;;5033930;28;20201;-44
2023/01/08 03:01:33;;;;;;;36.87;20.13;;;;;;;;;;5032990;28;20277;-44
2023/01/08 03:04:06;;;;;;;25.80;15.17;;;;;;;;;;5033726;28;20290;-49
2023/01/08 03:06:33;;;;;;;27.40;14.50;;;;;;;;;;5033180;28;20192;-43
2023/01/08 03:09:00;;;;;;;27.73;15.10;;;;;;;;;;5032780;28;20564;-47
2023/01/08 03:11:31;;;;;;;30.07;15.73;;;;;;;;;;5033831;28;20205;-43
2023/01/08 03:14:14;;;;;;;41.53;18.43;;;;;;;;;;5032972;28;20209;-43
2023/01/08 03:16:56;;;;;;;42.93;18.40;;;;;;;;;;5032872;28;20274;-46
2023/01/08 03:19:42;;;;;;;49.57;24.40;;;;;;;;;;5032674;28;20648;-44
2023/01/08 03:22:11;;;;;;;43.03;23.73;;;;;;;;;;5033024;28;20196;-43
2023/01/08 03:24:40;;;;;;;22.67;13.50;;;;;;;;;;5033617;28;20236;-43
2023/01/08 03:27:10;;;;;;;24.47;12.83;;;;;;;;;;5032597;28;20593;-42
2023/01/08 03:29:38;;;;;;;21.60;12.20;;;;;;;;;;5032618;28;20236;-48
2023/01/08 03:32:10;;;;;;;24.73;13.37;;;;;;;;;;5033520;28;20201;-44
2023/01/08 03:34:39;;;;;;;27.83;13.07;;;;;;;;;;5032827;28;20201;-44
2023/01/08 03:37:08;;;;;;;27.70;14.93;;;;;;;;;;5032816;28;20204;-44
2023/01/08 03:39:58;;;;;;;31.70;19.20;;;;;;;;;;5032594;28;20208;-43
2023/01/08 03:42:26;;;;;;;30.73;21.70;;;;;;;;;;5032587;28;20324;-42
2023/01/08 03:44:54;;;;;;;44.33;24.67;;;;;;;;;;5032761;28;20217;-52
2023/01/08 03:47:22;;;;;;;22.37;12.93;;;;;;;;;;5033627;28;20271;-44
2023/01/08 03:49:50;;;;;;;20.13;11.97;;;;;;;;;;5033563;28;20201;-44
2023/01/08 03:52:25;;;;;;;21.50;11.80;;;;;;;;;;5035683;28;20283;-44
2023/01/08 03:54:54;;;;;;;20.97;12.50;;;;;;;;;;5037123;28;20348;-47
2023/01/08 03:57:21;;;;;;;20.87;11.20;;;;;;;;;;5037015;28;20200;-45
2023/01/08 03:59:48;;;;;;;22.90;12.77;;;;;;;;;;5036814;28;20200;-45
2023/01/08 04:02:16;;;;;;;48.53;18.87;;;;;;;;;;5037025;28;20200;-44
2023/01/08 04:04:43;;;;;;;27.47;16.47;;;;;;;;;;5036485;28;20228;-44
2023/01/08 04:07:11;;;;;;;19.83;11.77;;;;;;;;;;5036643;28;20216;-46
2023/01/08 04:09:38;;;;;;;24.10;12.60;;;;;;;;;;5036898;28;20213;-43
2023/01/08 04:12:05;;;;;;;25.40;13.17;;;;;;;;;;5036756;28;20266;-45
2023/01/08 04:14:32;;;;;;;20.67;11.60;;;;;;;;;;5036713;28;20544;-45
2023/01/08 04:17:00;;;;;;;25.97;13.77;;;;;;;;;;5036586;28;20200;-45
2023/01/08 04:19:27;;;;;;;48.27;18.93;;;;;;;;;;5036726;28;20196;-44
2023/01/08 04:21:54;;;;;;;34.03;15.43;;;;;;;;;;5036244;28;20209;-41
2023/01/08 04:24:21;;;;;;;45.27;23.60;;;;;;;;;;5036217;28;20676;-45
2023/01/08 04:26:48;;;;;;;20.83;13.33;;;;;;;;;;5036242;28;20211;-43
2023/01/08 04:29:15;;;;;;;17.20;10.50;;;;;;;;;;5036437;28;20216;-43
2023/01/08 04:31:42;;;;;;;17.43;10.77;;;;;;;;;;5036260;28;20259;-45
2023/01/08 04:34:10;;;;;;;18.87;11.17;;;;;;;;;;5035607;28;20536;-41
2023/01/08 04:36:37;;;;;;;22.03;11.90;;;;;;;;;;5036085;28;20197;-46
2023/01/08 04:39:06;;;;;;;20.47;11.80;;;;;;;;;;5036254;28;20211;-45
2023/01/08 04:41:33;;;;;;;26.07;14.00;;;;;;;;;;5035964;28;20684;-41
2023/01/08 04:44:01;;;;;;;35.73;24.17;;;;;;;;;;5035738;28;20240;-46
2023/01/08 04:46:27;;;;;;;31.77;19.23;;;;;;;;;;5035864;28;20721;-45
2023/01/08 04:48:55;;;;;;;28.07;16.10;;;;;;;;;;5035870;28;20217;-46
2023/01/08 04:51:22;;;;;;;21.13;10.93;;;;;;;;;;5036054;28;20597;-42
2023/01/08 04:53:50;;;;;;;20.57;11.00;;;;;;;;;;5036066;28;20213;-50
2023/01/08 04:56:17;;;;;;;17.17;10.23;;;;;;;;;;5036016;28;20209;-43
2023/01/08 04:58:44;;;;;;;20.93;11.40;;;;;;;;;;5035737;28;20227;-44
2023/01/08 05:01:22;;;;;;;29.10;14.67;;;;;;;;;;5035865;28;20556;-46
2023/01/08 05:04:01;;;;;;;48.67;18.77;;;;;;;;;;5035254;28;20201;-43
2023/01/08 05:06:30;;;;;;;42.43;21.20;;;;;;;;;;5035753;28;20201;-41
2023/01/08 05:08:57;;;;;;;18.27;10.97;;;;;;;;;;5035635;28;20235;-41
2023/01/08 05:11:24;;;;;;;16.07;9.37;;;;;;;;;;5035507;28;20541;-45
2023/01/08 05:13:52;;;;;;;19.93;9.13;;;;;;;;;;5035393;28;20200;-45
2023/01/08 05:16:19;;;;;;;15.30;8.90;;;;;;;;;;5035291;28;20197;-46
2023/01/08 05:18:47;;;;;;;14.90;8.20;;;;;;;;;;5035095;28;20630;-45
2023/01/08 05:21:14;;;;;;;14.63;8.43;;;;;;;;;;5034753;28;20300;-44
2023/01/08 05:23:48;;;;;;;18.53;9.07;;;;;;;;;;5034990;28;20622;-44
2023/01/08 05:26:16;;;;;;;15.67;9.33;;;;;;;;;;5035368;28;20334;-48
2023/01/08 05:28:44;;;;;;;18.40;11.27;;;;;;;;;;5035008;28;20200;-46
2023/01/08 05:31:11;;;;;;;16.23;8.10;;;;;;;;;;5035222;28;20205;-45
2023/01/08 05:33:39;;;;;;;15.03;8.20;;;;;;;;;;5034979;28;20524;-44
2023/01/08 05:36:07;;;;;;;27.80;13.10;;;;;;;;;;5035032;28;20212;-49
2023/01/08 05:38:35;;;;;;;62.33;20.77;;;;;;;;;;5034939;28;20630;-46
2023/01/08 05:41:02;;;;;;;59.10;19.13;;;;;;;;;;5034809;28;20722;-45
2023/01/08 05:43:30;;;;;;;31.47;13.80;;;;;;;;;;5034906;28;20240;-48
2023/01/08 05:46:01;;;;;;;27.43;15.97;;;;;;;;;;5035014;28;20518;-43
2023/01/08 05:48:29;;;;;;;22.83;14.43;;;;;;;;;;5034733;28;20504;-41
2023/01/08 05:50:56;;;;;;;21.10;12.87;;;;;;;;;;5034678;28;20200;-45
2023/01/08 05:53:23;;;;;;;42.87;26.03;;;;;;;;;;5034804;28;20208;-42
2023/01/08 05:55:50;;;;;;;12.10;6.60;;;;;;;;;;5034672;28;21251;-45
2023/01/08 05:58:18;;;;;;;8.37;5.80;;;;;;;;;;5034614;28;20227;-45
2023/01/08 06:00:45;;;;;;;11.53;7.03;;;;;;;;;;5034531;28;20204;-44
2023/01/08 06:03:12;;;;;;;12.33;6.83;;;;;;;;;;5034264;28;20263;-46
2023/01/08 06:05:39;;;;;;;15.87;8.80;;;;;;;;;;5034129;28;20668;-44
2023/01/08 06:08:06;;;;;;;36.50;13.63;;;;;;;;;;5034277;28;20204;-46
2023/01/08 06:10:36;;;;;;;43.97;15.37;;;;;;;;;;5034150;28;20271;-44
2023/01/08 06:13:08;;;;;;;13.77;8.53;;;;;;;;;;5034064;28;20622;-40
2023/01/08 06:15:38;;;;;;;13.00;8.50;;;;;;;;;;5033444;28;20208;-46
2023/01/08 06:18:05;;;;;;;7.37;5.40;;;;;;;;;;5033542;28;20189;-46
2023/01/08 06:20:32;;;;;;;9.70;5.67;;;;;;;;;;5034372;28;20204;-43
2023/01/08 06:22:59;;;;;;;11.13;6.30;;;;;;;;;;5033930;28;20704;-44
2023/01/08 06:25:28;;;;;;;9.13;5.77;;;;;;;;;;5034150;28;20310;-43
2023/01/08 06:27:55;;;;;;;10.53;6.23;;;;;;;;;;5033862;28;20205;-43
2023/01/08 06:30:22;;;;;;;20.73;10.00;;;;;;;;;;5033937;28;20204;-41
2023/01/08 06:32:54;;;;;;;13.93;8.87;;;;;;;;;;5033840;28;20205;-44
2023/01/08 06:35:21;;;;;;;12.77;8.10;;;;;;;;;;5033681;28;20649;-44
2023/01/08 06:37:49;;;;;;;9.50;6.30;;;;;;;;;;5033839;28;20263;-44
2023/01/08 06:40:16;;;;;;;10.63;6.47;;;;;;;;;;5034035;28;20247;-47
2023/01/08 06:42:45;;;;;;;10.97;6.40;;;;;;;;;;5033491;28;20232;-43
2023/01/08 06:45:12;;;;;;;9.43;6.17;;;;;;;;;;5033658;28;20225;-45
2023/01/08 06:47:39;;;;;;;11.37;6.73;;;;;;;;;;5033720;28;20205;-43
2023/01/08 06:50:07;;;;;;;10.17;6.63;;;;;;;;;;5033976;28;20208;-47
2023/01/08 06:52:34;;;;;;;16.13;11.30;;;;;;;;;;5033620;28;20216;-46
2023/01/08 06:55:01;;;;;;;15.43;10.80;;;;;;;;;;5033732;28;20220;-44
2023/01/08 06:57:29;;;;;;;13.60;8.77;;;;;;;;;;5033600;28;20204;-43
2023/01/08 06:59:56;;;;;;;11.47;7.60;;;;;;;;;;5027919;28;20232;-44
2023/01/08 07:02:24;;;;;;;21.73;11.27;;;;;;;;;;5032834;28;20232;-50
2023/01/08 07:04:51;;;;;;;22.63;11.83;;;;;;;;;;5032264;28;20286;-50
2023/01/08 07:07:19;;;;;;;24.00;11.63;;;;;;;;;;5033143;28;20227;-46
2023/01/08 07:09:46;;;;;;;23.53;12.80;;;;;;;;;;5032709;28;20654;-46
2023/01/08 07:12:13;;;;;;;23.53;14.40;;;;;;;;;;5033090;28;20611;-44
2023/01/08 07:14:40;;;;;;;17.97;11.80;;;;;;;;;;5032587;28;20606;-45
2023/01/08 07:17:08;;;;;;;19.60;12.73;;;;;;;;;;5033136;28;20263;-47
2023/01/08 07:19:35;;;;;;;31.03;22.43;;;;;;;;;;5032732;28;20228;-44
2023/01/08 07:22:02;;;;;;;17.43;11.10;;;;;;;;;;5032886;28;20541;-45
2023/01/08 07:24:29;;;;;;;13.20;9.00;;;;;;;;;;5031904;28;20224;-47
2023/01/08 07:26:57;;;;;;;15.27;9.50;;;;;;;;;;5035753;28;20227;-45
2023/01/08 07:29:26;;;;;;;13.87;8.70;;;;;;;;;;5035307;28;20229;-47
2023/01/08 07:31:53;;;;;;;12.60;8.27;;;;;;;;;;5036696;28;20312;-43
2023/01/08 07:34:20;;;;;;;24.70;12.63;;;;;;;;;;5036846;28;20233;-47
2023/01/08 07:36:47;;;;;;;20.07;11.00;;;;;;;;;;5036419;28;20228;-44
2023/01/08 07:39:14;;;;;;;33.60;18.63;;;;;;;;;;5035896;28;20221;-44
2023/01/08 07:41:43;;;;;;;46.97;25.23;;;;;;;;;;5036440;28;20228;-43
2023/01/08 07:44:10;;;;;;;34.67;18.13;;;;;;;;;;5032165;28;20251;-49
2023/01/08 07:46:38;;;;;;;22.83;12.07;;;;;;;;;;5034677;28;20244;-42
2023/01/08 07:49:05;;;;;;;19.77;12.23;;;;;;;;;;5036310;28;20221;-45
2023/01/08 07:51:33;;;;;;;19.30;11.20;;;;;;;;;;5033033;28;20253;-46
2023/01/08 07:54:00;;;;;;;20.43;13.67;;;;;;;;;;5035252;28;20274;-49
2023/01/08 07:56:27;;;;;;;14.67;9.60;;;;;;;;;;5032256;28;20232;-46
2023/01/08 07:58:54;;;;;;;17.00;10.37;;;;;;;;;;5035801;28;20270;-46
2023/01/08 08:01:22;;;;;;;17.87;12.30;;;;;;;;;;5035249;28;20653;-46
2023/01/08 08:03:49;;;;;;;23.53;14.50;;;;;;;;;;5035017;28;20225;-51
2023/01/08 08:06:17;;;;;;;23.23;14.80;;;;;;;;;;5035235;28;20235;-48
2023/01/08 08:08:44;;;;;;;22.57;12.80;;;;;;;;;;5035032;28;20559;-46
2023/01/08 08:11:11;;;;;;;24.40;13.13;;;;;;;;;;5034315;28;20228;-47
2023/01/08 08:13:43;;;;;;;20.57;12.27;;;;;;;;;;5035109;28;20533;-50
2023/01/08 08:16:11;;;;;;;15.53;10.00;;;;;;;;;;5034797;28;20573;-49
2023/01/08 08:18:38;;;;;;;24.70;15.07;;;;;;;;;;5034339;28;20680;-48
2023/01/08 08:21:06;;;;;;;19.63;12.83;;;;;;;;;;5034935;28;20290;-49
2023/01/08 08:23:33;;;;;;;16.67;9.83;;;;;;;;;;5030381;28;20270;-47
2023/01/08 08:26:03;;;;;;;23.27;12.87;;;;;;;;;;5033800;28;20290;-47
2023/01/08 08:28:30;;;;;;;22.67;12.57;;;;;;;;;;5034068;28;20298;-53
2023/01/08 08:30:57;;;;;;;20.47;12.37;;;;;;;;;;5034154;28;20678;-47
2023/01/08 08:33:25;;;;;;;25.10;13.23;;;;;;;;;;5034267;28;20228;-46
2023/01/08 08:35:52;;;;;;;16.77;10.07;;;;;;;;;;5034508;28;20236;-45
2023/01/08 08:38:19;;;;;;;14.57;9.23;;;;;;;;;;5034006;28;20294;-45
2023/01/08 08:40:50;;;;;;;23.00;14.93;;;;;;;;;;5033736;28;20220;-47
2023/01/08 08:43:17;;;;;;;14.33;9.53;;;;;;;;;;5034331;28;20240;-46
2023/01/08 08:45:44;;;;;;;15.67;9.37;;;;;;;;;;5034290;28;20688;-47
2023/01/08 08:48:11;;;;;;;16.00;10.10;;;;;;;;;;5034748;28;20239;-45
2023/01/08 08:50:38;;;;;;;15.17;10.10;;;;;;;;;;5033843;28;20616;-46
2023/01/08 08:53:06;;;;;;;19.73;11.47;;;;;;;;;;5034309;28;20649;-47
2023/01/08 08:55:33;;;;;;;26.20;14.70;;;;;;;;;;5033785;28;20240;-48
2023/01/08 08:58:05;;;;;;;17.73;10.00;;;;;;;;;;5033686;28;20223;-51
2023/01/08 09:00:32;;;;;;;24.07;16.23;;;;;;;;;;5032615;28;20228;-47
2023/01/08 09:02:59;;;;;;;28.73;14.03;;;;;;;;;;5033031;28;20236;-47
2023/01/08 09:05:27;;;;;;;29.00;14.13;;;;;;;;;;5034347;28;20263;-46
2023/01/08 09:07:55;;;;;;;37.03;16.70;;;;;;;;;;5034543;28;20236;-46
2023/01/08 09:10:22;;;;;;;30.47;13.17;;;;;;;;;;5033377;28;20243;-48
2023/01/08 09:12:51;;;;;;;36.40;14.33;;;;;;;;;;5034140;28;20267;-45
2023/01/08 09:15:20;;;;;;;24.07;11.67;;;;;;;;;;5034320;28;20229;-46
2023/01/08 09:17:54;;;;;;;48.00;18.60;;;;;;;;;;5033889;28;20224;-46
2023/01/08 09:20:22;;;;;;;117.87;77.37;;;;;;;;;;5033838;28;20309;-47
2023/01/08 09:22:49;;;;;;;75.30;34.53;;;;;;;;;;5033603;28;20220;-48
2023/01/08 09:25:17;;;;;;;59.37;23.77;;;;;;;;;;5034711;28;20294;-49
2023/01/08 09:27:44;;;;;;;59.10;18.70;;;;;;;;;;5034292;28;20319;-46
2023/01/08 09:30:11;;;;;;;47.50;14.90;;;;;;;;;;5033456;28;20232;-48
2023/01/08 09:32:38;;;;;;;48.57;17.43;;;;;;;;;;5033860;28;20221;-45
2023/01/08 09:35:06;;;;;;;51.87;18.50;;;;;;;;;;5034471;28;20228;-48
2023/01/08 09:37:33;;;;;;;30.30;12.83;;;;;;;;;;5034055;28;20229;-47
2023/01/08 09:40:00;;;;;;;27.60;11.50;;;;;;;;;;5033891;28;20240;-47
2023/01/08 09:42:30;;;;;;;33.07;19.10;;;;;;;;;;5033235;28;20327;-48
2023/01/08 09:44:58;;;;;;;26.13;13.63;;;;;;;;;;5032431;28;20232;-46
2023/01/08 09:47:32;;;;;;;27.33;17.60;;;;;;;;;;5016096;28;20240;-46
2023/01/08 09:50:02;;;;;;;58.10;30.00;;;;;;;;;;5032250;28;20690;-46
2023/01/08 09:52:30;;;;;;;35.10;17.10;;;;;;;;;;5032273;28;20299;-47
2023/01/08 09:54:59;;;;;;;28.70;13.27;;;;;;;;;;5033078;28;20240;-48
2023/01/08 09:57:27;;;;;;;45.13;19.27;;;;;;;;;;5033909;28;20281;-47
2023/01/08 09:59:55;;;;;;;34.93;14.13;;;;;;;;;;5032630;28;20248;-46
2023/01/08 10:02:24;;;;;;;18.30;10.00;;;;;;;;;;5033601;28;20385;-45
2023/01/08 10:04:59;;;;;;;21.87;10.93;;;;;;;;;;5031135;28;20236;-47
2023/01/08 10:07:27;;;;;;;43.90;18.00;;;;;;;;;;5031573;28;20266;-50
2023/01/08 10:09:55;;;;;;;44.00;22.83;;;;;;;;;;5031049;28;20227;-47
2023/01/08 10:12:32;;;;;;;36.30;17.67;;;;;;;;;;5032646;28;20255;-48
2023/01/08 10:15:01;;;;;;;23.47;10.80;;;;;;;;;;5033462;28;20232;-47
2023/01/08 10:17:36;;;;;;;22.60;15.13;;;;;;;;;;5033229;28;20598;-51
2023/01/08 10:20:11;;;;;;;18.20;13.07;;;;;;;;;;5031923;28;20270;-50
2023/01/08 10:22:39;;;;;;;19.77;10.50;;;;;;;;;;5032991;28;20220;-48
2023/01/08 10:25:18;;;;;;;25.40;12.07;;;;;;;;;;5032889;28;20255;-47
2023/01/08 10:27:52;;;;;;;25.70;11.80;;;;;;;;;;5033259;28;20282;-46
2023/01/08 10:30:42;;;;;;;22.50;12.20;;;;;;;;;;5033473;28;20291;-46
2023/01/08 10:33:12;;;;;;;20.87;10.77;;;;;;;;;;5033100;28;20604;-45
2023/01/08 10:35:41;;;;;;;27.37;11.93;;;;;;;;;;5033268;28;20566;-44
2023/01/08 10:38:36;;;;;;;20.20;10.20;;;;;;;;;;5033490;28;20287;-45
2023/01/08 10:41:05;;;;;;;32.83;17.50;;;;;;;;;;5031675;28;20228;-47
2023/01/08 10:43:48;;;;;;;30.93;13.57;;;;;;;;;;5031525;28;20244;-46
2023/01/08 10:46:42;;;;;;;54.87;19.57;;;;;;;;;;5032159;28;20237;-46
2023/01/08 10:49:22;;;;;;;27.43;19.00;;;;;;;;;;5027952;28;20279;-46
2023/01/08 10:51:51;;;;;;;33.17;16.43;;;;;;;;;;5031929;28;20282;-46
2023/01/08 10:54:39;;;;;;;27.43;12.93;;;;;;;;;;5033041;28;20221;-46
2023/01/08 10:57:27;;;;;;;47.50;18.50;;;;;;;;;;5032911;28;20224;-48
2023/01/08 10:59:55;;;;;;;24.10;11.40;;;;;;;;;;5031340;28;20217;-46
2023/01/08 11:02:22;;;;;;;33.27;15.43;;;;;;;;;;5036448;28;20232;-47
2023/01/08 11:04:50;;;;;;;23.47;12.27;;;;;;;;;;5036759;28;20543;-47
2023/01/08 11:07:19;;;;;;;37.47;15.83;;;;;;;;;;5036976;28;20240;-46
2023/01/08 11:09:48;;;;;;;59.40;27.37;;;;;;;;;;5035973;28;20263;-46
2023/01/08 11:12:35;;;;;;;66.80;25.33;;;;;;;;;;5034963;28;20669;-45
2023/01/08 11:15:04;;;;;;;65.27;25.10;;;;;;;;;;5035910;28;20274;-49
2023/01/08 11:17:32;;;;;;;35.77;25.73;;;;;;;;;;5037029;28;20231;-45
2023/01/08 11:20:08;;;;;;;34.50;17.50;;;;;;;;;;5035659;28;20240;-41
2023/01/08 11:22:35;;;;;;;27.43;14.20;;;;;;;;;;5034377;28;20302;-47
2023/01/08 11:25:02;;;;;;;45.80;18.20;;;;;;;;;;5035199;28;20232;-46
2023/01/08 11:27:34;;;;;;;95.20;30.90;;;;;;;;;;5034836;28;20240;-42
2023/01/08 11:30:13;;;;;;;53.20;20.17;;;;;;;;;;5032647;28;20229;-50
2023/01/08 11:33:08;;;;;;;57.23;20.90;;;;;;;;;;5035540;28;20225;-45
2023/01/08 11:35:37;;;;;;;78.40;27.00;;;;;;;;;;5035831;28;20320;-46
2023/01/08 11:38:07;;;;;;;108.73;43.17;;;;;;;;;;5036711;28;20737;-43
2023/01/08 11:40:54;;;;;;;57.90;22.87;;;;;;;;;;5035887;28;20696;-47
2023/01/08 11:43:45;;;;;;;88.17;26.10;;;;;;;;;;5034330;28;20240;-47
2023/01/08 11:46:30;;;;;;;93.97;33.50;;;;;;;;;;5034981;28;20237;-47
2023/01/08 11:49:32;;;;;;;24.43;16.03;;;;;;;;;;5036020;28;20666;-47
2023/01/08 11:52:11;;;;;;;32.63;17.37;;;;;;;;;;5035772;28;20220;-52
2023/01/08 11:55:06;;;;;;;62.23;23.50;;;;;;;;;;5034472;28;20220;-51
2023/01/08 11:58:01;;;;;;;39.20;16.33;;;;;;;;;;5024910;28;20311;-45
2023/01/08 12:00:40;;;;;;;42.23;17.83;;;;;;;;;;5016500;28;20348;-47
2023/01/08 12:03:25;;;;;;;40.03;17.83;;;;;;;;;;5034806;28;20225;-47
2023/01/08 12:06:02;;;;;;;24.60;13.40;;;;;;;;;;5035889;28;20739;-47
2023/01/08 12:08:54;;;;;;;72.50;29.27;;;;;;;;;;5035915;28;20225;-51
2023/01/08 12:11:27;;;;;;;48.93;21.87;;;;;;;;;;5035703;28;20561;-47
2023/01/08 12:14:22;;;;;;;41.97;20.70;;;;;;;;;;5033965;28;20228;-47
2023/01/08 12:17:11;;;;;;;56.33;19.57;;;;;;;;;;5018260;28;20559;-46
2023/01/08 12:20:06;;;;;;;47.73;18.67;;;;;;;;;;5035981;28;20559;-46
2023/01/08 12:22:52;;;;;;;92.10;32.13;;;;;;;;;;5035499;28;20661;-51
2023/01/08 12:26:09;;;;;;;36.73;16.13;;;;;;;;;;5034711;28;20228;-46
2023/01/08 12:28:58;;;;;;;82.27;59.10;;;;;;;;;;5026109;28;20231;-46
2023/01/08 12:31:32;;;;;;;45.80;21.57;;;;;;;;;;5030849;28;20225;-47
2023/01/08 12:34:10;;;;;;;30.23;17.20;;;;;;;;;;5033969;28;20220;-47
2023/01/08 12:36:49;;;;;;;54.30;18.73;;;;;;;;;;5034615;28;20225;-46
2023/01/08 12:39:29;;;;;;;49.10;18.83;;;;;;;;;;5034838;28;20241;-47
2023/01/08 12:42:10;;;;;;;34.83;16.00;;;;;;;;;;5034395;28;20532;-49
2023/01/08 12:44:39;;;;;;;32.60;16.53;;;;;;;;;;5033511;28;20236;-50
2023/01/08 12:47:12;;;;;;;34.60;15.23;;;;;;;;;;5035396;28;20232;-51
2023/01/08 12:49:54;;;;;;;45.17;25.80;;;;;;;;;;5035398;28;20281;-49
2023/01/08 12:52:26;;;;;;;27.53;16.10;;;;;;;;;;5035386;28;20282;-47
2023/01/08 12:54:57;;;;;;;24.70;13.93;;;;;;;;;;5034108;28;20220;-47
2023/01/08 12:57:31;;;;;;;30.97;15.93;;;;;;;;;;5034215;28;20315;-51
2023/01/08 12:59:58;;;;;;;25.20;14.13;;;;;;;;;;5034366;28;20221;-46
2023/01/08 13:02:50;;;;;;;28.53;15.03;;;;;;;;;;5034767;28;20217;-48
2023/01/08 13:05:17;;;;;;;51.30;18.37;;;;;;;;;;5033283;28;20665;-47
2023/01/08 13:07:46;;;;;;;44.70;17.43;;;;;;;;;;5034420;28;20638;-46
2023/01/08 13:10:26;;;;;;;56.30;26.27;;;;;;;;;;5034186;28;20224;-46
2023/01/08 13:12:54;;;;;;;38.83;19.53;;;;;;;;;;5032977;28;20781;-46
2023/01/08 13:15:24;;;;;;;48.10;19.03;;;;;;;;;;5034551;28;20607;-46
2023/01/08 13:17:57;;;;;;;44.57;18.77;;;;;;;;;;5033744;28;20221;-47
2023/01/08 13:20:29;;;;;;;38.80;16.47;;;;;;;;;;5034477;28;20535;-47
2023/01/08 13:22:59;;;;;;;54.90;18.53;;;;;;;;;;5034368;28;20315;-47
2023/01/08 13:25:37;;;;;;;53.67;19.67;;;;;;;;;;5034081;28;20355;-49
2023/01/08 13:28:28;;;;;;;57.67;19.47;;;;;;;;;;5033199;28;20633;-46
2023/01/08 13:31:24;;;;;;;71.63;28.17;;;;;;;;;;5034758;28;20236;-46
2023/01/08 13:33:52;;;;;;;54.07;25.53;;;;;;;;;;5033137;28;20295;-46
2023/01/08 13:36:26;;;;;;;32.77;19.70;;;;;;;;;;5034326;28;20744;-46
2023/01/08 13:39:04;;;;;;;24.83;14.37;;;;;;;;;;5033443;28;20279;-43
2023/01/08 13:41:57;;;;;;;56.90;19.97;;;;;;;;;;5033733;28;20224;-47
2023/01/08 13:44:29;;;;;;;43.00;16.90;;;;;;;;;;5033180;28;20692;-47
2023/01/08 13:46:59;;;;;;;36.13;15.73;;;;;;;;;;5033755;28;20681;-47
2023/01/08 13:49:41;;;;;;;38.90;17.07;;;;;;;;;;5032298;28;20255;-51
2023/01/08 13:52:31;;;;;;;38.83;16.73;;;;;;;;;;5034223;28;20228;-48
2023/01/08 13:55:03;;;;;;;43.10;18.17;;;;;;;;;;5033755;28;20217;-47
2023/01/08 13:57:39;;;;;;;83.70;34.60;;;;;;;;;;5033046;28;20601;-53
2023/01/08 14:00:09;;;;;;;61.80;22.87;;;;;;;;;;5034167;28;20228;-48
2023/01/08 14:02:49;;;;;;;65.13;22.83;;;;;;;;;;5033726;28;20221;-47
2023/01/08 14:05:28;;;;;;;58.10;21.27;;;;;;;;;;5033814;28;20231;-49
2023/01/08 14:07:57;;;;;;;54.07;18.97;;;;;;;;;;5033915;28;20617;-48
2023/01/08 14:10:26;;;;;;;50.63;19.60;;;;;;;;;;5033361;28;20286;-48
2023/01/08 14:12:59;;;;;;;54.03;20.40;;;;;;;;;;5032823;28;20653;-47
2023/01/08 14:15:28;;;;;;;51.33;19.50;;;;;;;;;;5030440;28;20323;-53
2023/01/08 14:17:56;;;;;;;67.53;27.80;;;;;;;;;;5032538;28;20263;-50
2023/01/08 14:20:29;;;;;;;48.60;19.87;;;;;;;;;;5033555;28;20247;-52
2023/01/08 14:22:58;;;;;;;71.57;22.60;;;;;;;;;;5032511;28;20808;-49
2023/01/08 14:25:25;;;;;;;70.07;25.03;;;;;;;;;;5031094;28;20670;-53
2023/01/08 14:27:58;;;;;;;547.33;248.33;;;;;;;;;;5032746;28;20272;-53
2023/01/08 14:30:26;;;;;;;227.20;103.67;;;;;;;;;;5033366;28;20669;-53
2023/01/08 14:32:55;;;;;;;98.70;36.60;;;;;;;;;;5032952;28;20212;-46
2023/01/08 14:35:30;;;;;;;146.80;42.30;;;;;;;;;;5031996;28;20227;-50
2023/01/08 14:37:59;;;;;;;116.27;38.50;;;;;;;;;;5033371;28;20216;-47
2023/01/08 14:40:40;;;;;;;78.50;26.40;;;;;;;;;;5032000;28;20236;-50
2023/01/08 14:43:13;;;;;;;87.30;30.43;;;;;;;;;;5014117;28;20229;-47
2023/01/08 14:45:45;;;;;;;61.13;23.10;;;;;;;;;;5023147;28;20233;-52
2023/01/08 14:48:22;;;;;;;53.20;21.13;;;;;;;;;;5033442;28;20239;-47